sensor_id;sensor_type;location;lat;lon;timestamp;pressure;altitude;pressure_sealevel;temperature;humidity
75192;BME280;63771;52.580;9.734;2023-10-08T00:01:52;101711.56;;;13.20;98.87
75192;BME280;63771;52.580;9.734;2023-10-08T00:04:21;101711.56;;;13.20;99.37
75192;BME280;63771;52.580;9.734;2023-10-08T00:06:46;101701.03;;;13.06;99.12
75192;BME280;63771;52.580;9.734;2023-10-08T00:09:12;101679.88;;;13.09;99.45
75192;BME280;63771;52.580;9.734;2023-10-08T00:11:39;101691.22;;;12.92;99.36
75192;BME280;63771;52.580;9.734;2023-10-08T00:14:05;101708.47;;;12.85;99.11
75192;BME280;63771;52.580;9.734;2023-10-08T00:16:37;101719.81;;;12.78;99.07
75192;BME280;63771;52.580;9.734;2023-10-08T00:19:06;101716.53;;;12.79;99.27
75192;BME280;63771;52.580;9.734;2023-10-08T00:21:38;101723.25;;;12.49;100.00
75192;BME280;63771;52.580;9.734;2023-10-08T00:24:05;101731.00;;;12.60;100.00
75192;BME280;63771;52.580;9.734;2023-10-08T00:26:34;101728.22;;;12.67;100.00
75192;BME280;63771;52.580;9.734;2023-10-08T00:29:06;101742.31;;;12.72;100.00
75192;BME280;63771;52.580;9.734;2023-10-08T00:31:32;101741.72;;;12.74;100.00
75192;BME280;63771;52.580;9.734;2023-10-08T00:34:03;101751.19;;;12.75;100.00
75192;BME280;63771;52.580;9.734;2023-10-08T00:36:42;101764.53;;;12.82;100.00
75192;BME280;63771;52.580;9.734;2023-10-08T00:39:09;101784.75;;;12.78;100.00
75192;BME280;63771;52.580;9.734;2023-10-08T00:41:48;101781.03;;;12.75;99.62
75192;BME280;63771;52.580;9.734;2023-10-08T00:44:15;101790.22;;;12.73;99.50
75192;BME280;63771;52.580;9.734;2023-10-08T00:46:54;101785.38;;;12.76;100.00
75192;BME280;63771;52.580;9.734;2023-10-08T00:49:23;101786.16;;;12.75;99.45
75192;BME280;63771;52.580;9.734;2023-10-08T00:52:14;101786.06;;;12.65;98.92
75192;BME280;63771;52.580;9.734;2023-10-08T00:54:41;101786.56;;;12.61;99.10
75192;BME280;63771;52.580;9.734;2023-10-08T00:57:19;101781.22;;;12.68;99.61
75192;BME280;63771;52.580;9.734;2023-10-08T00:59:47;101788.47;;;12.63;98.92
75192;BME280;63771;52.580;9.734;2023-10-08T01:02:19;101789.47;;;12.55;99.36
75192;BME280;63771;52.580;9.734;2023-10-08T01:04:49;101801.84;;;12.50;100.00
75192;BME280;63771;52.580;9.734;2023-10-08T01:07:15;101800.50;;;12.45;100.00
75192;BME280;63771;52.580;9.734;2023-10-08T01:09:42;101805.50;;;12.44;100.00
75192;BME280;63771;52.580;9.734;2023-10-08T01:14:44;101814.22;;;12.46;100.00
75192;BME280;63771;52.580;9.734;2023-10-08T01:17:11;101818.44;;;12.45;99.58
75192;BME280;63771;52.580;9.734;2023-10-08T01:19:44;101820.69;;;12.42;99.38
75192;BME280;63771;52.580;9.734;2023-10-08T01:22:13;101830.66;;;12.39;99.61
75192;BME280;63771;52.580;9.734;2023-10-08T01:24:44;101825.25;;;12.36;99.41
75192;BME280;63771;52.580;9.734;2023-10-08T01:27:10;101832.94;;;12.36;99.63
75192;BME280;63771;52.580;9.734;2023-10-08T01:29:38;101829.69;;;12.28;99.82
75192;BME280;63771;52.580;9.734;2023-10-08T01:32:04;101840.81;;;12.29;100.00
75192;BME280;63771;52.580;9.734;2023-10-08T01:34:34;101837.22;;;12.27;100.00
75192;BME280;63771;52.580;9.734;2023-10-08T01:37:01;101839.47;;;12.24;100.00
75192;BME280;63771;52.580;9.734;2023-10-08T01:39:33;101837.25;;;12.18;100.00
75192;BME280;63771;52.580;9.734;2023-10-08T01:41:59;101838.91;;;12.18;100.00
75192;BME280;63771;52.580;9.734;2023-10-08T01:44:24;101848.50;;;12.20;100.00
75192;BME280;63771;52.580;9.734;2023-10-08T01:46:49;101842.06;;;12.15;100.00
75192;BME280;63771;52.580;9.734;2023-10-08T01:49:15;101842.97;;;12.16;100.00
75192;BME280;63771;52.580;9.734;2023-10-08T01:51:41;101830.94;;;12.15;100.00
75192;BME280;63771;52.580;9.734;2023-10-08T01:54:12;101841.16;;;12.15;100.00
75192;BME280;63771;52.580;9.734;2023-10-08T01:56:40;101836.06;;;12.15;100.00
75192;BME280;63771;52.580;9.734;2023-10-08T01:59:13;101828.81;;;12.19;100.00
75192;BME280;63771;52.580;9.734;2023-10-08T02:01:41;101826.72;;;12.15;100.00
75192;BME280;63771;52.580;9.734;2023-10-08T02:04:06;101830.25;;;12.07;100.00
75192;BME280;63771;52.580;9.734;2023-10-08T02:06:39;101836.16;;;11.97;100.00
75192;BME280;63771;52.580;9.734;2023-10-08T02:09:05;101845.75;;;12.00;100.00
75192;BME280;63771;52.580;9.734;2023-10-08T02:11:53;101857.63;;;11.99;100.00
75192;BME280;63771;52.580;9.734;2023-10-08T02:14:20;101858.22;;;12.06;100.00
75192;BME280;63771;52.580;9.734;2023-10-08T02:16:46;101855.94;;;12.09;100.00
75192;BME280;63771;52.580;9.734;2023-10-08T02:19:12;101843.28;;;12.10;100.00
75192;BME280;63771;52.580;9.734;2023-10-08T02:21:39;101839.50;;;12.15;100.00
75192;BME280;63771;52.580;9.734;2023-10-08T02:24:07;101851.41;;;12.15;100.00
75192;BME280;63771;52.580;9.734;2023-10-08T02:26:34;101851.38;;;12.23;100.00
75192;BME280;63771;52.580;9.734;2023-10-08T02:29:03;101856.75;;;12.26;100.00
75192;BME280;63771;52.580;9.734;2023-10-08T02:31:33;101842.47;;;12.28;100.00
75192;BME280;63771;52.580;9.734;2023-10-08T02:33:58;101835.69;;;12.29;100.00
75192;BME280;63771;52.580;9.734;2023-10-08T02:36:24;101833.56;;;12.34;100.00
75192;BME280;63771;52.580;9.734;2023-10-08T02:38:49;101840.34;;;12.33;100.00
75192;BME280;63771;52.580;9.734;2023-10-08T02:41:18;101837.63;;;12.32;100.00
75192;BME280;63771;52.580;9.734;2023-10-08T02:43:43;101824.66;;;12.39;100.00
75192;BME280;63771;52.580;9.734;2023-10-08T02:46:10;101839.25;;;12.40;100.00
75192;BME280;63771;52.580;9.734;2023-10-08T02:48:41;101841.09;;;12.32;100.00
75192;BME280;63771;52.580;9.734;2023-10-08T02:51:06;101852.72;;;12.28;100.00
75192;BME280;63771;52.580;9.734;2023-10-08T02:53:41;101870.06;;;12.22;100.00
75192;BME280;63771;52.580;9.734;2023-10-08T02:56:08;101867.94;;;12.27;100.00
75192;BME280;63771;52.580;9.734;2023-10-08T02:58:39;101878.47;;;12.21;100.00
75192;BME280;63771;52.580;9.734;2023-10-08T03:01:04;101878.78;;;12.16;100.00
75192;BME280;63771;52.580;9.734;2023-10-08T03:03:30;101856.06;;;12.19;100.00
75192;BME280;63771;52.580;9.734;2023-10-08T03:05:57;101866.75;;;12.15;100.00
75192;BME280;63771;52.580;9.734;2023-10-08T03:08:23;101869.31;;;12.15;100.00
75192;BME280;63771;52.580;9.734;2023-10-08T03:10:52;101857.84;;;12.20;100.00
75192;BME280;63771;52.580;9.734;2023-10-08T03:13:21;101863.09;;;12.21;100.00
75192;BME280;63771;52.580;9.734;2023-10-08T03:15:47;101864.63;;;12.19;100.00
75192;BME280;63771;52.580;9.734;2023-10-08T03:18:25;101877.28;;;12.18;100.00
75192;BME280;63771;52.580;9.734;2023-10-08T03:20:50;101884.84;;;12.16;100.00
75192;BME280;63771;52.580;9.734;2023-10-08T03:23:16;101891.00;;;12.10;100.00
75192;BME280;63771;52.580;9.734;2023-10-08T03:25:56;101902.91;;;12.09;100.00
75192;BME280;63771;52.580;9.734;2023-10-08T03:28:25;101913.25;;;12.11;100.00
75192;BME280;63771;52.580;9.734;2023-10-08T03:30:52;101916.16;;;12.05;100.00
75192;BME280;63771;52.580;9.734;2023-10-08T03:33:29;101910.91;;;12.04;100.00
75192;BME280;63771;52.580;9.734;2023-10-08T03:35:54;101906.53;;;12.02;100.00
75192;BME280;63771;52.580;9.734;2023-10-08T03:38:22;101900.19;;;12.08;100.00
75192;BME280;63771;52.580;9.734;2023-10-08T03:40:56;101909.69;;;12.00;100.00
75192;BME280;63771;52.580;9.734;2023-10-08T03:43:34;101905.97;;;11.96;100.00
75192;BME280;63771;52.580;9.734;2023-10-08T03:46:04;101915.44;;;11.97;100.00
75192;BME280;63771;52.580;9.734;2023-10-08T03:48:33;101923.09;;;11.97;100.00
75192;BME280;63771;52.580;9.734;2023-10-08T03:51:03;101926.41;;;11.96;100.00
75192;BME280;63771;52.580;9.734;2023-10-08T03:53:40;101914.53;;;11.97;100.00
75192;BME280;63771;52.580;9.734;2023-10-08T03:56:35;101903.84;;;12.01;100.00
75192;BME280;63771;52.580;9.734;2023-10-08T03:59:04;101929.44;;;12.01;100.00
75192;BME280;63771;52.580;9.734;2023-10-08T04:01:44;101931.53;;;11.96;100.00
75192;BME280;63771;52.580;9.734;2023-10-08T04:04:10;101940.25;;;11.90;100.00
75192;BME280;63771;52.580;9.734;2023-10-08T04:06:43;101959.53;;;11.86;100.00
75192;BME280;63771;52.580;9.734;2023-10-08T04:09:15;101959.53;;;11.86;100.00
75192;BME280;63771;52.580;9.734;2023-10-08T04:11:49;101968.25;;;11.88;100.00
75192;BME280;63771;52.580;9.734;2023-10-08T04:14:19;101982.56;;;11.86;100.00
75192;BME280;63771;52.580;9.734;2023-10-08T04:16:45;101974.13;;;11.87;100.00
75192;BME280;63771;52.580;9.734;2023-10-08T04:19:11;101977.88;;;11.82;100.00
75192;BME280;63771;52.580;9.734;2023-10-08T04:21:37;101963.28;;;11.81;100.00
75192;BME280;63771;52.580;9.734;2023-10-08T04:24:02;101970.03;;;11.81;100.00
75192;BME280;63771;52.580;9.734;2023-10-08T04:26:31;101962.69;;;11.75;100.00
75192;BME280;63771;52.580;9.734;2023-10-08T04:28:59;101964.34;;;11.66;100.00
75192;BME280;63771;52.580;9.734;2023-10-08T04:31:28;101948.09;;;11.65;100.00
75192;BME280;63771;52.580;9.734;2023-10-08T04:34:02;101941.19;;;11.64;100.00
75192;BME280;63771;52.580;9.734;2023-10-08T04:36:34;101941.47;;;11.67;100.00
75192;BME280;63771;52.580;9.734;2023-10-08T04:38:59;101963.72;;;11.68;100.00
75192;BME280;63771;52.580;9.734;2023-10-08T04:41:30;101959.50;;;11.69;100.00
75192;BME280;63771;52.580;9.734;2023-10-08T04:43:55;101964.34;;;11.66;100.00
75192;BME280;63771;52.580;9.734;2023-10-08T04:46:21;101983.00;;;11.65;100.00
75192;BME280;63771;52.580;9.734;2023-10-08T04:49:04;101986.88;;;11.61;100.00
75192;BME280;63771;52.580;9.734;2023-10-08T04:51:42;101995.31;;;11.60;100.00
75192;BME280;63771;52.580;9.734;2023-10-08T04:54:11;101986.88;;;11.61;100.00
75192;BME280;63771;52.580;9.734;2023-10-08T04:56:43;101977.56;;;11.62;100.00
75192;BME280;63771;52.580;9.734;2023-10-08T04:59:09;101974.25;;;11.63;100.00
75192;BME280;63771;52.580;9.734;2023-10-08T05:01:37;101980.56;;;11.66;100.00
75192;BME280;63771;52.580;9.734;2023-10-08T05:04:34;101980.44;;;11.65;100.00
75192;BME280;63771;52.580;9.734;2023-10-08T05:07:11;101988.56;;;11.69;100.00
75192;BME280;63771;52.580;9.734;2023-10-08T05:09:46;101979.94;;;11.69;100.00
75192;BME280;63771;52.580;9.734;2023-10-08T05:12:36;101986.13;;;11.71;100.00
75192;BME280;63771;52.580;9.734;2023-10-08T05:15:12;101990.50;;;11.72;100.00
75192;BME280;63771;52.580;9.734;2023-10-08T05:17:37;102004.03;;;11.71;100.00
75192;BME280;63771;52.580;9.734;2023-10-08T05:20:21;102013.94;;;11.68;100.00
75192;BME280;63771;52.580;9.734;2023-10-08T05:23:12;102020.84;;;11.69;100.00
75192;BME280;63771;52.580;9.734;2023-10-08T05:25:51;102006.44;;;11.69;100.00
75192;BME280;63771;52.580;9.734;2023-10-08T05:28:35;102014.25;;;11.71;100.00
75192;BME280;63771;52.580;9.734;2023-10-08T05:31:08;102023.59;;;11.70;100.00
75192;BME280;63771;52.580;9.734;2023-10-08T05:33:47;102030.94;;;11.67;100.00
75192;BME280;63771;52.580;9.734;2023-10-08T05:36:34;102029.28;;;11.68;100.00
75192;BME280;63771;52.580;9.734;2023-10-08T05:39:15;102033.34;;;11.66;100.00
75192;BME280;63771;52.580;9.734;2023-10-08T05:41:49;102029.00;;;11.65;100.00
75192;BME280;63771;52.580;9.734;2023-10-08T05:44:30;102036.81;;;11.66;100.00
75192;BME280;63771;52.580;9.734;2023-10-08T05:47:05;102041.59;;;11.63;100.00
75192;BME280;63771;52.580;9.734;2023-10-08T05:49:50;102037.41;;;11.55;100.00
75192;BME280;63771;52.580;9.734;2023-10-08T05:52:34;102044.47;;;11.58;100.00
75192;BME280;63771;52.580;9.734;2023-10-08T05:55:18;102063.25;;;11.58;100.00
75192;BME280;63771;52.580;9.734;2023-10-08T05:58:00;102053.66;;;11.64;100.00
75192;BME280;63771;52.580;9.734;2023-10-08T06:00:43;102054.72;;;11.66;100.00
75192;BME280;63771;52.580;9.734;2023-10-08T06:03:15;102054.84;;;11.68;100.00
75192;BME280;63771;52.580;9.734;2023-10-08T06:06:00;102064.78;;;11.65;100.00
75192;BME280;63771;52.580;9.734;2023-10-08T06:08:47;102050.19;;;11.64;100.00
75192;BME280;63771;52.580;9.734;2023-10-08T06:11:51;102050.94;;;11.71;100.00
75192;BME280;63771;52.580;9.734;2023-10-08T06:14:34;102062.84;;;11.71;100.00
75192;BME280;63771;52.580;9.734;2023-10-08T06:17:32;102062.09;;;11.72;100.00
75192;BME280;63771;52.580;9.734;2023-10-08T06:20:20;102061.19;;;11.71;100.00
75192;BME280;63771;52.580;9.734;2023-10-08T06:22:51;102067.19;;;11.72;100.00
75192;BME280;63771;52.580;9.734;2023-10-08T06:25:18;102081.94;;;11.74;100.00
75192;BME280;63771;52.580;9.734;2023-10-08T06:27:49;102078.19;;;11.71;100.00
75192;BME280;63771;52.580;9.734;2023-10-08T06:30:15;102089.31;;;11.71;100.00
75192;BME280;63771;52.580;9.734;2023-10-08T06:32:45;102094.88;;;11.76;100.00
75192;BME280;63771;52.580;9.734;2023-10-08T06:35:11;102090.22;;;11.72;100.00
75192;BME280;63771;52.580;9.734;2023-10-08T06:37:44;102093.97;;;11.75;100.00
75192;BME280;63771;52.580;9.734;2023-10-08T06:40:13;102102.41;;;11.74;100.00
75192;BME280;63771;52.580;9.734;2023-10-08T06:42:59;102121.94;;;11.74;100.00
75192;BME280;63771;52.580;9.734;2023-10-08T06:45:28;102126.19;;;11.82;100.00
75192;BME280;63771;52.580;9.734;2023-10-08T06:47:56;102118.84;;;11.85;100.00
75192;BME280;63771;52.580;9.734;2023-10-08T06:50:22;102120.19;;;11.90;100.00
75192;BME280;63771;52.580;9.734;2023-10-08T06:52:48;102126.81;;;11.88;100.00
75192;BME280;63771;52.580;9.734;2023-10-08T06:55:14;102128.78;;;11.91;100.00
75192;BME280;63771;52.580;9.734;2023-10-08T06:57:43;102133.44;;;11.86;100.00
75192;BME280;63771;52.580;9.734;2023-10-08T07:00:08;102134.19;;;11.94;100.00
75192;BME280;63771;52.580;9.734;2023-10-08T07:02:37;102137.34;;;12.00;100.00
75192;BME280;63771;52.580;9.734;2023-10-08T07:05:05;102130.56;;;12.00;100.00
75192;BME280;63771;52.580;9.734;2023-10-08T07:07:34;102130.28;;;12.06;100.00
75192;BME280;63771;52.580;9.734;2023-10-08T07:10:05;102128.91;;;12.10;100.00
75192;BME280;63771;52.580;9.734;2023-10-08T07:12:36;102142.59;;;12.10;100.00
75192;BME280;63771;52.580;9.734;2023-10-08T07:15:01;102142.47;;;12.09;100.00
75192;BME280;63771;52.580;9.734;2023-10-08T07:17:29;102148.34;;;12.08;100.00
75192;BME280;63771;52.580;9.734;2023-10-08T07:20:06;102153.00;;;12.12;100.00
75192;BME280;63771;52.580;9.734;2023-10-08T07:22:38;102166.84;;;12.14;100.00
75192;BME280;63771;52.580;9.734;2023-10-08T07:25:05;102167.88;;;12.16;100.00
75192;BME280;63771;52.580;9.734;2023-10-08T07:27:33;102162.50;;;12.13;100.00
75192;BME280;63771;52.580;9.734;2023-10-08T07:30:03;102167.88;;;12.16;100.00
75192;BME280;63771;52.580;9.734;2023-10-08T07:32:38;102164.44;;;12.15;100.00
75192;BME280;63771;52.580;9.734;2023-10-08T07:35:04;102156.47;;;12.12;100.00
75192;BME280;63771;52.580;9.734;2023-10-08T07:37:45;102160.22;;;12.16;100.00
75192;BME280;63771;52.580;9.734;2023-10-08T07:40:13;102166.09;;;12.15;100.00
75192;BME280;63771;52.580;9.734;2023-10-08T07:42:38;102163.09;;;12.19;100.00
75192;BME280;63771;52.580;9.734;2023-10-08T07:45:04;102171.81;;;12.21;100.00
75192;BME280;63771;52.580;9.734;2023-10-08T07:47:30;102179.81;;;12.24;100.00
75192;BME280;63771;52.580;9.734;2023-10-08T07:49:56;102181.91;;;12.28;100.00
75192;BME280;63771;52.580;9.734;2023-10-08T07:52:21;102185.66;;;12.32;100.00
75192;BME280;63771;52.580;9.734;2023-10-08T07:54:46;102188.69;;;12.36;100.00
75192;BME280;63771;52.580;9.734;2023-10-08T07:57:12;102187.63;;;12.34;100.00
75192;BME280;63771;52.580;9.734;2023-10-08T07:59:43;102192.75;;;12.34;100.00
75192;BME280;63771;52.580;9.734;2023-10-08T08:02:13;102189.13;;;12.41;100.00
75192;BME280;63771;52.580;9.734;2023-10-08T08:04:39;102189.72;;;12.47;100.00
75192;BME280;63771;52.580;9.734;2023-10-08T08:07:06;102184.78;;;12.48;100.00
75192;BME280;63771;52.580;9.734;2023-10-08T08:09:32;102191.56;;;12.48;100.00
75192;BME280;63771;52.580;9.734;2023-10-08T08:12:06;102208.84;;;12.50;100.00
75192;BME280;63771;52.580;9.734;2023-10-08T08:14:39;102203.41;;;12.47;100.00
75192;BME280;63771;52.580;9.734;2023-10-08T08:17:07;102193.94;;;12.46;100.00
75192;BME280;63771;52.580;9.734;2023-10-08T08:19:48;102196.81;;;12.49;100.00
75192;BME280;63771;52.580;9.734;2023-10-08T08:22:15;102202.38;;;12.45;100.00
75192;BME280;63771;52.580;9.734;2023-10-08T08:24:47;102208.25;;;12.44;100.00
75192;BME280;63771;52.580;9.734;2023-10-08T08:27:12;102216.09;;;12.37;100.00
75192;BME280;63771;52.580;9.734;2023-10-08T08:29:50;102220.31;;;12.45;100.00
75192;BME280;63771;52.580;9.734;2023-10-08T08:32:17;102228.28;;;12.48;100.00
75192;BME280;63771;52.580;9.734;2023-10-08T08:34:47;102227.09;;;12.53;100.00
75192;BME280;63771;52.580;9.734;2023-10-08T08:37:18;102216.38;;;12.58;100.00
75192;BME280;63771;52.580;9.734;2023-10-08T08:39:44;102223.16;;;12.66;100.00
75192;BME280;63771;52.580;9.734;2023-10-08T08:42:11;102219.69;;;12.65;100.00
75192;BME280;63771;52.580;9.734;2023-10-08T08:44:38;102224.97;;;12.67;100.00
75192;BME280;63771;52.580;9.734;2023-10-08T08:47:09;102227.84;;;12.70;99.82
75192;BME280;63771;52.580;9.734;2023-10-08T08:49:40;102234.91;;;12.72;100.00
75192;BME280;63771;52.580;9.734;2023-10-08T08:52:07;102239.88;;;12.71;99.04
75192;BME280;63771;52.580;9.734;2023-10-08T08:54:32;102243.47;;;12.73;97.71
75192;BME280;63771;52.580;9.734;2023-10-08T08:56:59;102251.91;;;12.72;96.35
75192;BME280;63771;52.580;9.734;2023-10-08T08:59:27;102259.91;;;12.75;94.87
75192;BME280;63771;52.580;9.734;2023-10-08T09:01:56;102254.34;;;12.79;95.47
75192;BME280;63771;52.580;9.734;2023-10-08T09:04:29;102253.28;;;12.86;94.78
75192;BME280;63771;52.580;9.734;2023-10-08T09:06:56;102268.03;;;12.88;94.15
75192;BME280;63771;52.580;9.734;2023-10-08T09:09:22;102271.34;;;12.87;93.65
75192;BME280;63771;52.580;9.734;2023-10-08T09:11:48;102260.19;;;12.95;94.23
75192;BME280;63771;52.580;9.734;2023-10-08T09:14:20;102270.16;;;13.01;94.70
75192;BME280;63771;52.580;9.734;2023-10-08T09:16:46;102274.19;;;13.07;94.30
75192;BME280;63771;52.580;9.734;2023-10-08T09:19:12;102272.53;;;13.08;91.84
75192;BME280;63771;52.580;9.734;2023-10-08T09:21:43;102267.84;;;13.13;90.87
75192;BME280;63771;52.580;9.734;2023-10-08T09:24:09;102272.53;;;13.17;88.63
75192;BME280;63771;52.580;9.734;2023-10-08T09:26:36;102281.88;;;13.16;84.77
75192;BME280;63771;52.580;9.734;2023-10-08T09:29:04;102275.84;;;13.16;85.84
75192;BME280;63771;52.580;9.734;2023-10-08T09:31:30;102269.19;;;13.18;86.03
75192;BME280;63771;52.580;9.734;2023-10-08T09:34:00;102270.72;;;13.16;85.01
75192;BME280;63771;52.580;9.734;2023-10-08T09:36:28;102264.06;;;13.18;84.79
75192;BME280;63771;52.580;9.734;2023-10-08T09:39:03;102266.22;;;13.22;83.81
75192;BME280;63771;52.580;9.734;2023-10-08T09:41:32;102280.38;;;13.27;84.99
75192;BME280;63771;52.580;9.734;2023-10-08T09:43:59;102267.84;;;13.30;85.07
75192;BME280;63771;52.580;9.734;2023-10-08T09:46:32;102275.84;;;13.33;86.47
75192;BME280;63771;52.580;9.734;2023-10-08T09:49:04;102266.63;;;13.35;85.27
75192;BME280;63771;52.580;9.734;2023-10-08T09:51:33;102261.66;;;13.37;83.72
75192;BME280;63771;52.580;9.734;2023-10-08T09:54:10;102262.84;;;13.40;85.01
75192;BME280;63771;52.580;9.734;2023-10-08T09:56:36;102266.75;;;13.45;86.37
75192;BME280;63771;52.580;9.734;2023-10-08T09:59:02;102268.28;;;13.43;80.19
75192;BME280;63771;52.580;9.734;2023-10-08T10:01:28;102269.59;;;13.48;81.39
75192;BME280;63771;52.580;9.734;2023-10-08T10:03:57;102269.88;;;13.51;79.12
75192;BME280;63771;52.580;9.734;2023-10-08T10:06:25;102269.88;;;13.51;78.41
75192;BME280;63771;52.580;9.734;2023-10-08T10:08:51;102268.53;;;13.55;77.89
75192;BME280;63771;52.580;9.734;2023-10-08T10:11:20;102260.97;;;13.56;78.36
75192;BME280;63771;52.580;9.734;2023-10-08T10:13:50;102266.41;;;13.60;79.56
75192;BME280;63771;52.580;9.734;2023-10-08T10:16:18;102273.63;;;13.64;80.83
75192;BME280;63771;52.580;9.734;2023-10-08T10:18:48;102264.28;;;13.64;79.59
75192;BME280;63771;52.580;9.734;2023-10-08T10:23:44;102265.47;;;13.68;76.96
75192;BME280;63771;52.580;9.734;2023-10-08T10:26:32;102281.44;;;13.74;77.43
75192;BME280;63771;52.580;9.734;2023-10-08T10:31:40;102297.66;;;13.83;75.30
75192;BME280;63771;52.580;9.734;2023-10-08T10:34:10;102299.78;;;13.87;76.46
75192;BME280;63771;52.580;9.734;2023-10-08T10:36:38;102279.81;;;13.93;75.96
75192;BME280;63771;52.580;9.734;2023-10-08T10:39:05;102257.31;;;13.99;73.51
75192;BME280;63771;52.580;9.734;2023-10-08T10:41:55;102288.69;;;14.05;75.00
75192;BME280;63771;52.580;9.734;2023-10-08T10:44:23;102285.44;;;14.17;72.81
75192;BME280;63771;52.580;9.734;2023-10-08T10:46:49;102288.91;;;14.17;70.85
75192;BME280;63771;52.580;9.734;2023-10-08T10:49:18;102281.91;;;14.25;74.13
75192;BME280;63771;52.580;9.734;2023-10-08T10:51:48;102284.41;;;14.33;74.85
75192;BME280;63771;52.580;9.734;2023-10-08T10:54:17;102291.00;;;14.40;72.87
75192;BME280;63771;52.580;9.734;2023-10-08T10:56:48;102275.91;;;14.43;72.58
75192;BME280;63771;52.580;9.734;2023-10-08T10:59:34;102272.31;;;14.41;71.00
75192;BME280;63771;52.580;9.734;2023-10-08T11:02:06;102282.81;;;14.44;72.34
75192;BME280;63771;52.580;9.734;2023-10-08T11:04:46;102277.25;;;14.48;72.26
75192;BME280;63771;52.580;9.734;2023-10-08T11:07:16;102285.84;;;14.49;70.87
75192;BME280;63771;52.580;9.734;2023-10-08T11:09:43;102273.16;;;14.50;70.45
75192;BME280;63771;52.580;9.734;2023-10-08T11:12:10;102277.69;;;14.53;69.19
75192;BME280;63771;52.580;9.734;2023-10-08T11:14:40;102263.47;;;14.56;67.53
75192;BME280;63771;52.580;9.734;2023-10-08T11:17:14;102256.78;;;14.58;68.07
75192;BME280;63771;52.580;9.734;2023-10-08T11:19:44;102238.78;;;14.58;66.37
75192;BME280;63771;52.580;9.734;2023-10-08T11:22:13;102263.09;;;14.62;67.56
75192;BME280;63771;52.580;9.734;2023-10-08T11:24:42;102277.59;;;14.61;66.69
75192;BME280;63771;52.580;9.734;2023-10-08T11:27:13;102288.50;;;14.59;65.15
75192;BME280;63771;52.580;9.734;2023-10-08T11:29:46;102286.69;;;14.58;66.06
75192;BME280;63771;52.580;9.734;2023-10-08T11:32:13;102294.28;;;14.56;65.30
75192;BME280;63771;52.580;9.734;2023-10-08T11:34:45;102264.97;;;14.54;65.55
75192;BME280;63771;52.580;9.734;2023-10-08T11:37:15;102237.91;;;14.58;68.04
75192;BME280;63771;52.580;9.734;2023-10-08T11:39:51;102217.47;;;14.59;69.13
75192;BME280;63771;52.580;9.734;2023-10-08T11:42:18;102244.19;;;14.61;70.58
75192;BME280;63771;52.580;9.734;2023-10-08T11:45:02;102265.50;;;14.60;67.69
75192;BME280;63771;52.580;9.734;2023-10-08T11:47:45;102281.09;;;14.62;66.80
75192;BME280;63771;52.580;9.734;2023-10-08T11:50:14;102283.00;;;14.65;67.88
75192;BME280;63771;52.580;9.734;2023-10-08T11:52:44;102285.22;;;14.70;68.76
75192;BME280;63771;52.580;9.734;2023-10-08T11:55:09;102283.09;;;14.75;69.08
75192;BME280;63771;52.580;9.734;2023-10-08T11:57:46;102291.09;;;14.78;69.96
75192;BME280;63771;52.580;9.734;2023-10-08T12:00:17;102280.28;;;14.82;70.59
75192;BME280;63771;52.580;9.734;2023-10-08T12:02:49;102272.09;;;14.86;69.59
75192;BME280;63771;52.580;9.734;2023-10-08T12:05:14;102274.78;;;14.87;70.54
75192;BME280;63771;52.580;9.734;2023-10-08T12:07:49;102283.97;;;14.94;71.72
75192;BME280;63771;52.580;9.734;2023-10-08T12:10:17;102264.44;;;14.96;71.29
75192;BME280;63771;52.580;9.734;2023-10-08T12:12:51;102264.84;;;15.01;71.24
75192;BME280;63771;52.580;9.734;2023-10-08T12:15:20;102253.81;;;15.02;68.81
75192;BME280;63771;52.580;9.734;2023-10-08T12:17:47;102252.78;;;15.00;65.46
75192;BME280;63771;52.580;9.734;2023-10-08T12:20:36;102244.16;;;14.99;65.66
75192;BME280;63771;52.580;9.734;2023-10-08T12:23:03;102247.16;;;14.85;61.13
75192;BME280;63771;52.580;9.734;2023-10-08T12:25:28;102246.28;;;14.84;62.96
75192;BME280;63771;52.580;9.734;2023-10-08T12:27:54;102247.31;;;14.86;65.58
75192;BME280;63771;52.580;9.734;2023-10-08T12:30:19;102238.81;;;14.87;66.53
75192;BME280;63771;52.580;9.734;2023-10-08T12:32:55;102245.63;;;14.87;62.36
75192;BME280;63771;52.580;9.734;2023-10-08T12:35:22;102235.34;;;14.87;63.38
75192;BME280;63771;52.580;9.734;2023-10-08T12:37:49;102235.22;;;14.85;59.65
75192;BME280;63771;52.580;9.734;2023-10-08T12:40:15;102236.25;;;14.87;61.54
75192;BME280;63771;52.580;9.734;2023-10-08T12:42:52;102220.22;;;14.90;63.52
75192;BME280;63771;52.580;9.734;2023-10-08T12:45:18;102201.75;;;14.94;65.42
75192;BME280;63771;52.580;9.734;2023-10-08T12:47:51;102206.22;;;14.97;66.69
75192;BME280;63771;52.580;9.734;2023-10-08T12:50:17;102187.63;;;14.99;65.75
75192;BME280;63771;52.580;9.734;2023-10-08T12:52:49;102174.91;;;15.01;66.50
75192;BME280;63771;52.580;9.734;2023-10-08T12:55:20;102178.38;;;15.01;65.10
75192;BME280;63771;52.580;9.734;2023-10-08T12:57:52;102187.09;;;15.03;66.12
75192;BME280;63771;52.580;9.734;2023-10-08T13:00:24;102196.47;;;15.03;64.88
75192;BME280;63771;52.580;9.734;2023-10-08T13:02:51;102190.44;;;15.02;64.37
75192;BME280;63771;52.580;9.734;2023-10-08T13:05:23;102200.09;;;15.05;64.48
75192;BME280;63771;52.580;9.734;2023-10-08T13:07:54;102205.50;;;15.08;62.95
75192;BME280;63771;52.580;9.734;2023-10-08T13:10:21;102210.03;;;15.10;62.35